sensor_id;sensor_type;location;lat;lon;timestamp;pressure;altitude;pressure_sealevel;temperature;humidity
63903;BME280;50072;50.678;13.938;2023-05-14T00:02:23;99910.72;;;12.04;84.90
63903;BME280;50072;50.678;13.938;2023-05-14T00:04:49;99892.94;;;12.00;84.55
63903;BME280;50072;50.678;13.938;2023-05-14T00:07:14;99884.31;;;11.87;84.81
63903;BME280;50072;50.678;13.938;2023-05-14T00:09:41;99882.75;;;11.78;86.01
63903;BME280;50072;50.678;13.938;2023-05-14T00:12:07;99877.56;;;11.72;86.86
63903;BME280;50072;50.678;13.938;2023-05-14T00:14:33;99872.25;;;11.70;87.78
63903;BME280;50072;50.678;13.938;2023-05-14T00:16:59;99876.63;;;11.74;87.05
63903;BME280;50072;50.678;13.938;2023-05-14T00:19:26;99878.53;;;11.69;87.33
63903;BME280;50072;50.678;13.938;2023-05-14T00:21:52;99863.66;;;11.57;87.95
63903;BME280;50072;50.678;13.938;2023-05-14T00:24:18;99863.97;;;11.45;89.41
63903;BME280;50072;50.678;13.938;2023-05-14T00:26:43;99872.88;;;11.46;89.20
63903;BME280;50072;50.678;13.938;2023-05-14T00:29:10;99868.50;;;11.43;89.88
63903;BME280;50072;50.678;13.938;2023-05-14T00:31:36;99869.09;;;11.54;89.44
63903;BME280;50072;50.678;13.938;2023-05-14T00:34:04;99871.78;;;11.54;89.09
63903;BME280;50072;50.678;13.938;2023-05-14T00:36:30;99879.81;;;11.54;89.10
63903;BME280;50072;50.678;13.938;2023-05-14T00:38:56;99869.22;;;11.48;88.80
63903;BME280;50072;50.678;13.938;2023-05-14T00:41:22;99876.56;;;11.42;89.97
63903;BME280;50072;50.678;13.938;2023-05-14T00:43:48;99874.97;;;11.33;90.71
63903;BME280;50072;50.678;13.938;2023-05-14T00:46:14;99872.38;;;11.30;91.42
63903;BME280;50072;50.678;13.938;2023-05-14T00:48:41;99876.63;;;11.38;91.12
63903;BME280;50072;50.678;13.938;2023-05-14T00:51:07;99889.19;;;11.36;91.92
63903;BME280;50072;50.678;13.938;2023-05-14T00:53:35;99880.41;;;11.30;92.59
63903;BME280;50072;50.678;13.938;2023-05-14T00:56:03;99885.94;;;11.23;93.21
63903;BME280;50072;50.678;13.938;2023-05-14T00:58:29;99884.25;;;11.19;93.83
63903;BME280;50072;50.678;13.938;2023-05-14T01:00:56;99886.13;;;11.14;93.62
63903;BME280;50072;50.678;13.938;2023-05-14T01:03:22;99883.50;;;11.13;94.15
63903;BME280;50072;50.678;13.938;2023-05-14T01:11:24;99884.16;;;11.22;93.46
63903;BME280;50072;50.678;13.938;2023-05-14T01:14:12;99882.34;;;11.25;93.11
63903;BME280;50072;50.678;13.938;2023-05-14T01:16:39;99889.44;;;11.26;92.66
63903;BME280;50072;50.678;13.938;2023-05-14T01:19:09;99887.84;;;11.18;92.72
63903;BME280;50072;50.678;13.938;2023-05-14T01:21:43;99886.22;;;11.11;92.59
63903;BME280;50072;50.678;13.938;2023-05-14T01:24:09;99877.59;;;10.98;93.44
63903;BME280;50072;50.678;13.938;2023-05-14T01:26:35;99884.09;;;10.88;93.55
63903;BME280;50072;50.678;13.938;2023-05-14T01:29:25;99874.47;;;10.79;94.18
63903;BME280;50072;50.678;13.938;2023-05-14T01:31:54;99871.19;;;10.66;95.24
63903;BME280;50072;50.678;13.938;2023-05-14T01:34:23;99870.41;;;10.61;96.64
63903;BME280;50072;50.678;13.938;2023-05-14T01:36:50;99877.50;;;10.64;96.86
63903;BME280;50072;50.678;13.938;2023-05-14T01:39:18;99871.22;;;10.65;98.50
63903;BME280;50072;50.678;13.938;2023-05-14T01:41:45;99871.03;;;10.73;98.68
63903;BME280;50072;50.678;13.938;2023-05-14T01:44:11;99874.47;;;10.79;98.34
63903;BME280;50072;50.678;13.938;2023-05-14T01:46:37;99868.06;;;10.86;98.12
63903;BME280;50072;50.678;13.938;2023-05-14T01:49:03;99861.72;;;10.91;97.61
63903;BME280;50072;50.678;13.938;2023-05-14T01:51:29;99870.47;;;10.99;96.36
63903;BME280;50072;50.678;13.938;2023-05-14T01:53:55;99866.84;;;11.00;96.66
63903;BME280;50072;50.678;13.938;2023-05-14T01:56:22;99871.53;;;10.90;97.32
63903;BME280;50072;50.678;13.938;2023-05-14T01:58:48;99871.53;;;10.90;97.22
63903;BME280;50072;50.678;13.938;2023-05-14T02:01:14;99868.63;;;11.01;97.11
63903;BME280;50072;50.678;13.938;2023-05-14T02:03:40;99877.34;;;11.09;96.57
63903;BME280;50072;50.678;13.938;2023-05-14T02:06:06;99879.78;;;11.18;96.05
63903;BME280;50072;50.678;13.938;2023-05-14T02:08:32;99890.44;;;11.21;95.54
63903;BME280;50072;50.678;13.938;2023-05-14T02:10:57;99874.50;;;11.15;95.62
63903;BME280;50072;50.678;13.938;2023-05-14T02:13:24;99870.22;;;11.08;96.55
63903;BME280;50072;50.678;13.938;2023-05-14T02:15:50;99871.97;;;11.11;96.91
63903;BME280;50072;50.678;13.938;2023-05-14T02:18:16;99864.66;;;11.17;96.13
63903;BME280;50072;50.678;13.938;2023-05-14T02:20:42;99873.69;;;11.13;95.28
63903;BME280;50072;50.678;13.938;2023-05-14T02:23:07;99866.56;;;11.12;95.50
63903;BME280;50072;50.678;13.938;2023-05-14T02:25:33;99862.94;;;11.15;95.57
63903;BME280;50072;50.678;13.938;2023-05-14T02:28:01;99872.53;;;11.23;95.17
63903;BME280;50072;50.678;13.938;2023-05-14T02:30:26;99864.34;;;11.30;95.18
63903;BME280;50072;50.678;13.938;2023-05-14T02:32:52;99858.13;;;11.29;95.06
63903;BME280;50072;50.678;13.938;2023-05-14T02:35:18;99866.19;;;11.28;94.70
63903;BME280;50072;50.678;13.938;2023-05-14T02:37:44;99873.31;;;11.29;94.79
63903;BME280;50072;50.678;13.938;2023-05-14T02:40:10;99875.06;;;11.30;94.89
63903;BME280;50072;50.678;13.938;2023-05-14T02:42:36;99876.13;;;11.22;94.93
63903;BME280;50072;50.678;13.938;2023-05-14T02:45:01;99877.34;;;11.09;95.47
63903;BME280;50072;50.678;13.938;2023-05-14T02:47:27;99870.31;;;11.05;95.83
63903;BME280;50072;50.678;13.938;2023-05-14T02:49:53;99876.41;;;11.12;95.92
63903;BME280;50072;50.678;13.938;2023-05-14T02:52:19;99865.56;;;11.16;96.29
63903;BME280;50072;50.678;13.938;2023-05-14T02:54:44;99864.59;;;11.20;95.67
63903;BME280;50072;50.678;13.938;2023-05-14T02:57:10;99857.47;;;11.19;95.73
63903;BME280;50072;50.678;13.938;2023-05-14T02:59:38;99860.13;;;11.19;95.82
63903;BME280;50072;50.678;13.938;2023-05-14T03:02:04;99852.00;;;11.22;95.64
63903;BME280;50072;50.678;13.938;2023-05-14T03:04:30;99854.63;;;11.26;95.80
63903;BME280;50072;50.678;13.938;2023-05-14T03:06:56;99854.56;;;11.27;96.08
63903;BME280;50072;50.678;13.938;2023-05-14T03:09:21;99857.28;;;11.26;95.85
63903;BME280;50072;50.678;13.938;2023-05-14T03:11:49;99856.13;;;11.37;95.84
63903;BME280;50072;50.678;13.938;2023-05-14T03:14:14;99855.47;;;11.28;95.54
63903;BME280;50072;50.678;13.938;2023-05-14T03:16:40;99858.53;;;11.12;96.15
63903;BME280;50072;50.678;13.938;2023-05-14T03:19:06;99859.59;;;11.05;96.85
63903;BME280;50072;50.678;13.938;2023-05-14T03:21:34;99860.47;;;11.05;97.07
63903;BME280;50072;50.678;13.938;2023-05-14T03:23:59;99861.41;;;11.03;97.27
63903;BME280;50072;50.678;13.938;2023-05-14T03:26:25;99866.72;;;11.06;97.42
63903;BME280;50072;50.678;13.938;2023-05-14T03:28:51;99860.63;;;10.99;98.67
63903;BME280;50072;50.678;13.938;2023-05-14T03:31:17;99865.09;;;10.99;98.33
63903;BME280;50072;50.678;13.938;2023-05-14T03:33:43;99863.34;;;10.98;98.50
63903;BME280;50072;50.678;13.938;2023-05-14T03:36:09;99857.97;;;10.98;98.17
63903;BME280;50072;50.678;13.938;2023-05-14T03:38:34;99854.41;;;10.99;98.02
63903;BME280;50072;50.678;13.938;2023-05-14T03:41:00;99861.25;;;11.11;97.92
63903;BME280;50072;50.678;13.938;2023-05-14T03:43:26;99861.94;;;11.19;97.61
63903;BME280;50072;50.678;13.938;2023-05-14T03:45:52;99853.88;;;11.20;96.77
63903;BME280;50072;50.678;13.938;2023-05-14T03:48:18;99850.06;;;11.29;95.76
63903;BME280;50072;50.678;13.938;2023-05-14T03:50:45;99848.25;;;11.30;95.82
63903;BME280;50072;50.678;13.938;2023-05-14T03:53:11;99846.34;;;11.35;96.38
63903;BME280;50072;50.678;13.938;2023-05-14T03:55:38;99842.69;;;11.39;96.18
63903;BME280;50072;50.678;13.938;2023-05-14T03:58:04;99846.06;;;11.47;95.50
63903;BME280;50072;50.678;13.938;2023-05-14T04:00:40;99842.56;;;11.44;95.77
63903;BME280;50072;50.678;13.938;2023-05-14T04:03:06;99842.53;;;11.45;95.61
63903;BME280;50072;50.678;13.938;2023-05-14T04:05:34;99838.16;;;11.41;96.13
63903;BME280;50072;50.678;13.938;2023-05-14T04:08:01;99844.13;;;11.52;95.14
63903;BME280;50072;50.678;13.938;2023-05-14T04:10:27;99835.56;;;11.38;95.26
63903;BME280;50072;50.678;13.938;2023-05-14T04:12:54;99836.56;;;11.34;95.89
63903;BME280;50072;50.678;13.938;2023-05-14T04:15:20;99835.47;;;11.41;95.71
63903;BME280;50072;50.678;13.938;2023-05-14T04:17:46;99831.34;;;11.28;95.77
63903;BME280;50072;50.678;13.938;2023-05-14T04:20:11;99833.88;;;11.34;96.83
63903;BME280;50072;50.678;13.938;2023-05-14T04:22:43;99830.28;;;11.35;97.43
63903;BME280;50072;50.678;13.938;2023-05-14T04:25:10;99833.00;;;11.33;97.52
63903;BME280;50072;50.678;13.938;2023-05-14T04:27:36;99828.50;;;11.34;97.56
63903;BME280;50072;50.678;13.938;2023-05-14T04:30:02;99826.53;;;11.42;96.87
63903;BME280;50072;50.678;13.938;2023-05-14T04:32:28;99829.81;;;11.53;95.96
63903;BME280;50072;50.678;13.938;2023-05-14T04:34:55;99823.47;;;11.56;94.80
63903;BME280;50072;50.678;13.938;2023-05-14T04:37:20;99828.84;;;11.56;94.83
63903;BME280;50072;50.678;13.938;2023-05-14T04:39:46;99829.88;;;11.50;94.96
63903;BME280;50072;50.678;13.938;2023-05-14T04:42:13;99823.56;;;11.53;95.86
63903;BME280;50072;50.678;13.938;2023-05-14T04:44:39;99820.91;;;11.53;95.81
63903;BME280;50072;50.678;13.938;2023-05-14T04:47:05;99814.59;;;11.54;96.45
63903;BME280;50072;50.678;13.938;2023-05-14T04:49:31;99810.94;;;11.56;95.59
63903;BME280;50072;50.678;13.938;2023-05-14T04:51:58;99816.22;;;11.60;96.50
63903;BME280;50072;50.678;13.938;2023-05-14T04:54:24;99810.03;;;11.57;97.25
63903;BME280;50072;50.678;13.938;2023-05-14T04:56:49;99817.22;;;11.55;97.03
63903;BME280;50072;50.678;13.938;2023-05-14T04:59:16;99814.72;;;11.49;97.45
63903;BME280;50072;50.678;13.938;2023-05-14T05:01:41;99813.03;;;11.45;97.89
63903;BME280;50072;50.678;13.938;2023-05-14T05:04:07;99814.13;;;11.38;98.64
63903;BME280;50072;50.678;13.938;2023-05-14T05:06:33;99824.75;;;11.41;98.69
63903;BME280;50072;50.678;13.938;2023-05-14T05:08:59;99813.91;;;11.47;97.69
63903;BME280;50072;50.678;13.938;2023-05-14T05:11:24;99819.25;;;11.46;96.60
63903;BME280;50072;50.678;13.938;2023-05-14T05:13:50;99820.28;;;11.42;96.60
63903;BME280;50072;50.678;13.938;2023-05-14T05:16:16;99818.63;;;11.37;96.61
63903;BME280;50072;50.678;13.938;2023-05-14T05:18:42;99818.63;;;11.37;96.32
63903;BME280;50072;50.678;13.938;2023-05-14T05:21:08;99823.06;;;11.37;95.94
63903;BME280;50072;50.678;13.938;2023-05-14T05:23:34;99815.16;;;11.32;96.75
63903;BME280;50072;50.678;13.938;2023-05-14T05:26:01;99814.44;;;11.26;97.18
63903;BME280;50072;50.678;13.938;2023-05-14T05:28:27;99808.41;;;11.17;97.75
63903;BME280;50072;50.678;13.938;2023-05-14T05:30:53;99817.22;;;11.21;98.06
63903;BME280;50072;50.678;13.938;2023-05-14T05:33:19;99811.69;;;11.29;98.33
63903;BME280;50072;50.678;13.938;2023-05-14T05:35:44;99807.25;;;11.28;97.59
63903;BME280;50072;50.678;13.938;2023-05-14T05:38:11;99805.81;;;11.49;96.90
63903;BME280;50072;50.678;13.938;2023-05-14T05:40:36;99804.69;;;11.57;96.50
63903;BME280;50072;50.678;13.938;2023-05-14T05:43:02;99809.91;;;11.62;96.57
63903;BME280;50072;50.678;13.938;2023-05-14T05:45:28;99807.13;;;11.65;95.79
63903;BME280;50072;50.678;13.938;2023-05-14T05:47:54;99801.72;;;11.67;95.70
63903;BME280;50072;50.678;13.938;2023-05-14T05:50:20;99809.53;;;11.76;95.40
63903;BME280;50072;50.678;13.938;2023-05-14T05:52:47;99807.53;;;11.84;94.60
63903;BME280;50072;50.678;13.938;2023-05-14T05:55:16;99804.34;;;12.03;94.06
63903;BME280;50072;50.678;13.938;2023-05-14T05:57:42;99799.56;;;12.14;93.40
63903;BME280;50072;50.678;13.938;2023-05-14T06:00:08;99799.97;;;12.30;92.69
63903;BME280;50072;50.678;13.938;2023-05-14T06:02:38;99793.34;;;12.42;91.31
63903;BME280;50072;50.678;13.938;2023-05-14T06:05:05;99795.13;;;12.43;90.10
63903;BME280;50072;50.678;13.938;2023-05-14T06:07:31;99799.06;;;12.59;90.92
63903;BME280;50072;50.678;13.938;2023-05-14T06:09:57;99799.81;;;12.65;90.25
63903;BME280;50072;50.678;13.938;2023-05-14T06:12:23;99804.06;;;12.72;89.59
63903;BME280;50072;50.678;13.938;2023-05-14T06:14:48;99794.34;;;12.68;86.79
63903;BME280;50072;50.678;13.938;2023-05-14T06:17:14;99803.72;;;12.83;86.96
63903;BME280;50072;50.678;13.938;2023-05-14T06:19:40;99796.28;;;12.91;87.57
63903;BME280;50072;50.678;13.938;2023-05-14T06:22:06;99800.97;;;13.11;87.25
63903;BME280;50072;50.678;13.938;2023-05-14T06:24:31;99803.81;;;13.35;85.48
63903;BME280;50072;50.678;13.938;2023-05-14T06:26:57;99803.47;;;13.45;83.86
63903;BME280;50072;50.678;13.938;2023-05-14T06:29:24;99795.22;;;13.50;84.11
63903;BME280;50072;50.678;13.938;2023-05-14T06:31:50;99787.66;;;13.61;82.53
63903;BME280;50072;50.678;13.938;2023-05-14T06:34:15;99799.28;;;13.87;81.23
63903;BME280;50072;50.678;13.938;2023-05-14T06:36:41;99804.47;;;14.17;79.28
63903;BME280;50072;50.678;13.938;2023-05-14T06:39:07;99804.56;;;14.38;80.05
63903;BME280;50072;50.678;13.938;2023-05-14T06:41:33;99791.22;;;14.58;78.44
63903;BME280;50072;50.678;13.938;2023-05-14T06:43:58;99803.75;;;14.59;75.76
63903;BME280;50072;50.678;13.938;2023-05-14T06:46:24;99803.06;;;14.78;75.36
63903;BME280;50072;50.678;13.938;2023-05-14T06:48:50;99797.91;;;14.94;74.48
63903;BME280;50072;50.678;13.938;2023-05-14T06:51:16;99806.81;;;15.18;73.44
63903;BME280;50072;50.678;13.938;2023-05-14T06:53:42;99797.09;;;15.34;70.84
63903;BME280;50072;50.678;13.938;2023-05-14T06:56:07;99797.19;;;15.53;71.91
63903;BME280;50072;50.678;13.938;2023-05-14T06:58:33;99801.78;;;15.72;71.78
63903;BME280;50072;50.678;13.938;2023-05-14T07:00:59;99803.09;;;15.84;72.01
63903;BME280;50072;50.678;13.938;2023-05-14T07:03:25;99801.72;;;15.94;70.63
63903;BME280;50072;50.678;13.938;2023-05-14T07:05:51;99801.31;;;16.03;68.61
63903;BME280;50072;50.678;13.938;2023-05-14T07:08:16;99796.94;;;16.20;65.97
63903;BME280;50072;50.678;13.938;2023-05-14T07:10:42;99805.09;;;15.99;65.16
63903;BME280;50072;50.678;13.938;2023-05-14T07:13:08;99799.84;;;15.96;66.37
63903;BME280;50072;50.678;13.938;2023-05-14T07:15:34;99799.59;;;16.21;68.61
63903;BME280;50072;50.678;13.938;2023-05-14T07:18:00;99785.59;;;16.32;65.71
63903;BME280;50072;50.678;13.938;2023-05-14T07:20:25;99790.72;;;16.58;67.35
63903;BME280;50072;50.678;13.938;2023-05-14T07:22:51;99774.06;;;16.48;67.11
63903;BME280;50072;50.678;13.938;2023-05-14T07:25:17;99777.91;;;16.61;65.75
63903;BME280;50072;50.678;13.938;2023-05-14T07:27:43;99783.41;;;16.60;63.11
63903;BME280;50072;50.678;13.938;2023-05-14T07:30:09;99785.16;;;16.61;64.35
63903;BME280;50072;50.678;13.938;2023-05-14T07:32:34;99776.50;;;16.71;63.14
63903;BME280;50072;50.678;13.938;2023-05-14T07:35:00;99775.91;;;16.84;62.12
63903;BME280;50072;50.678;13.938;2023-05-14T07:37:26;99765.72;;;16.90;62.28
63903;BME280;50072;50.678;13.938;2023-05-14T07:39:52;99779.34;;;17.24;60.36
63903;BME280;50072;50.678;13.938;2023-05-14T07:42:18;99767.34;;;17.30;60.33
63903;BME280;50072;50.678;13.938;2023-05-14T07:44:44;99770.78;;;17.33;62.26
63903;BME280;50072;50.678;13.938;2023-05-14T07:47:10;99768.50;;;17.43;61.58
63903;BME280;50072;50.678;13.938;2023-05-14T07:49:36;99766.84;;;17.74;60.43
63903;BME280;50072;50.678;13.938;2023-05-14T07:52:02;99765.91;;;17.92;60.68
63903;BME280;50072;50.678;13.938;2023-05-14T07:54:27;99762.72;;;18.02;59.05
63903;BME280;50072;50.678;13.938;2023-05-14T07:56:53;99755.09;;;18.08;59.17
63903;BME280;50072;50.678;13.938;2023-05-14T07:59:19;99757.47;;;17.99;57.87
63903;BME280;50072;50.678;13.938;2023-05-14T08:01:45;99757.38;;;18.00;60.39
63903;BME280;50072;50.678;13.938;2023-05-14T08:04:11;99759.06;;;18.19;58.67
63903;BME280;50072;50.678;13.938;2023-05-14T08:06:37;99746.53;;;18.00;58.99
63903;BME280;50072;50.678;13.938;2023-05-14T08:09:03;99749.91;;;18.21;59.41
63903;BME280;50072;50.678;13.938;2023-05-14T08:11:33;99755.00;;;18.59;55.86
63903;BME280;50072;50.678;13.938;2023-05-14T08:13:59;99751.50;;;18.41;56.67
63903;BME280;50072;50.678;13.938;2023-05-14T08:16:25;99746.00;;;17.76;58.06
63903;BME280;50072;50.678;13.938;2023-05-14T08:18:51;99740.00;;;17.87;58.14
63903;BME280;50072;50.678;13.938;2023-05-14T08:21:16;99744.00;;;17.80;57.87
63903;BME280;50072;50.678;13.938;2023-05-14T08:23:43;99742.28;;;18.12;58.11
63903;BME280;50072;50.678;13.938;2023-05-14T08:26:08;99740.16;;;18.01;58.57
63903;BME280;50072;50.678;13.938;2023-05-14T08:28:35;99736.28;;;18.39;57.36
63903;BME280;50072;50.678;13.938;2023-05-14T08:31:01;99738.22;;;18.53;56.30
63903;BME280;50072;50.678;13.938;2023-05-14T08:33:27;99741.50;;;18.74;56.21
63903;BME280;50072;50.678;13.938;2023-05-14T08:35:53;99735.91;;;19.09;53.06
63903;BME280;50072;50.678;13.938;2023-05-14T08:38:19;99727.63;;;19.26;55.12
63903;BME280;50072;50.678;13.938;2023-05-14T08:40:55;99727.94;;;19.36;54.16
63903;BME280;50072;50.678;13.938;2023-05-14T08:43:25;99725.09;;;19.68;54.82
63903;BME280;50072;50.678;13.938;2023-05-14T08:46:01;99727.34;;;19.76;52.56
63903;BME280;50072;50.678;13.938;2023-05-14T08:48:31;99712.34;;;19.99;51.22
63903;BME280;50072;50.678;13.938;2023-05-14T08:50:58;99719.88;;;20.37;52.54
63903;BME280;50072;50.678;13.938;2023-05-14T08:53:25;99707.16;;;20.65;50.92
63903;BME280;50072;50.678;13.938;2023-05-14T08:55:52;99709.44;;;20.73;50.88
63903;BME280;50072;50.678;13.938;2023-05-14T08:58:18;99701.91;;;20.76;51.58
63903;BME280;50072;50.678;13.938;2023-05-14T09:00:44;99705.38;;;20.93;50.34
63903;BME280;50072;50.678;13.938;2023-05-14T09:03:11;99708.66;;;20.98;50.00
63903;BME280;50072;50.678;13.938;2023-05-14T09:05:37;99709.94;;;20.92;48.23
63903;BME280;50072;50.678;13.938;2023-05-14T09:08:04;99711.38;;;20.71;46.30
63903;BME280;50072;50.678;13.938;2023-05-14T09:10:30;99706.13;;;20.11;47.48
63903;BME280;50072;50.678;13.938;2023-05-14T09:12:57;99701.44;;;20.13;48.60
63903;BME280;50072;50.678;13.938;2023-05-14T09:15:26;99702.16;;;20.17;48.86
63903;BME280;50072;50.678;13.938;2023-05-14T09:17:53;99700.25;;;20.32;48.86
63903;BME280;50072;50.678;13.938;2023-05-14T09:20:18;99701.59;;;20.39;48.91
63903;BME280;50072;50.678;13.938;2023-05-14T09:22:45;99688.06;;;20.25;46.49
63903;BME280;50072;50.678;13.938;2023-05-14T09:25:11;99691.59;;;20.54;47.36
63903;BME280;50072;50.678;13.938;2023-05-14T09:27:47;99680.09;;;20.91;45.88
63903;BME280;50072;50.678;13.938;2023-05-14T09:30:16;99676.84;;;20.85;46.89
63903;BME280;50072;50.678;13.938;2023-05-14T09:32:43;99681.06;;;20.62;44.92
63903;BME280;50072;50.678;13.938;2023-05-14T09:35:16;99681.66;;;20.26;46.21
63903;BME280;50072;50.678;13.938;2023-05-14T09:37:44;99676.69;;;20.32;45.86
63903;BME280;50072;50.678;13.938;2023-05-14T09:40:11;99677.91;;;19.99;47.23
63903;BME280;50072;50.678;13.938;2023-05-14T09:42:40;99670.63;;;19.26;49.09
63903;BME280;50072;50.678;13.938;2023-05-14T09:45:09;99672.22;;;19.59;48.29
63903;BME280;50072;50.678;13.938;2023-05-14T09:47:36;99668.06;;;19.68;47.97
63903;BME280;50072;50.678;13.938;2023-05-14T09:50:04;99666.53;;;19.64;49.13
63903;BME280;50072;50.678;13.938;2023-05-14T09:52:31;99664.88;;;19.76;48.29
63903;BME280;50072;50.678;13.938;2023-05-14T09:54:57;99650.66;;;19.87;49.00
63903;BME280;50072;50.678;13.938;2023-05-14T09:57:23;99657.44;;;19.79;48.89
63903;BME280;50072;50.678;13.938;2023-05-14T09:59:49;99650.06;;;19.96;49.51
63903;BME280;50072;50.678;13.938;2023-05-14T10:02:23;99649.03;;;20.26;49.44
63903;BME280;50072;50.678;13.938;2023-05-14T10:04:51;99642.91;;;20.64;47.92
63903;BME280;50072;50.678;13.938;2023-05-14T10:07:21;99631.75;;;21.47;47.26
63903;BME280;50072;50.678;13.938;2023-05-14T10:09:49;99631.66;;;21.62;45.49
63903;BME280;50072;50.678;13.938;2023-05-14T10:12:20;99623.59;;;21.60;44.45
63903;BME280;50072;50.678;13.938;2023-05-14T10:14:49;99626.28;;;21.21;44.79
63903;BME280;50072;50.678;13.938;2023-05-14T10:17:21;99621.59;;;20.98;45.05
63903;BME280;50072;50.678;13.938;2023-05-14T10:19:53;99624.34;;;20.71;45.45
63903;BME280;50072;50.678;13.938;2023-05-14T10:22:22;99629.69;;;20.58;46.78
63903;BME280;50072;50.678;13.938;2023-05-14T10:24:49;99625.84;;;20.20;47.37
63903;BME280;50072;50.678;13.938;2023-05-14T10:27:20;99623.84;;;19.95;48.04
63903;BME280;50072;50.678;13.938;2023-05-14T10:29:51;99621.44;;;19.76;48.22
63903;BME280;50072;50.678;13.938;2023-05-14T10:32:20;99613.75;;;20.11;46.82
63903;BME280;50072;50.678;13.938;2023-05-14T10:34:46;99609.66;;;21.78;45.67
63903;BME280;50072;50.678;13.938;2023-05-14T10:37:16;99602.25;;;22.89;43.30
63903;BME280;50072;50.678;13.938;2023-05-14T10:39:48;99591.09;;;23.51;41.13
63903;BME280;50072;50.678;13.938;2023-05-14T10:42:27;99595.78;;;24.28;39.53
63903;BME280;50072;50.678;13.938;2023-05-14T10:45:06;99584.13;;;25.54;37.92
63903;BME280;50072;50.678;13.938;2023-05-14T10:47:35;99586.88;;;25.33;36.80
63903;BME280;50072;50.678;13.938;2023-05-14T10:50:12;99582.97;;;24.72;37.78
63903;BME280;50072;50.678;13.938;2023-05-14T10:52:43;99584.41;;;24.11;38.37
63903;BME280;50072;50.678;13.938;2023-05-14T10:55:12;99591.22;;;23.72;39.96
63903;BME280;50072;50.678;13.938;2023-05-14T10:57:41;99591.69;;;23.20;39.62
63903;BME280;50072;50.678;13.938;2023-05-14T11:00:09;99588.44;;;22.80;40.93
63903;BME280;50072;50.678;13.938;2023-05-14T11:02:37;99584.03;;;22.66;40.63
63903;BME280;50072;50.678;13.938;2023-05-14T11:05:08;99575.31;;;22.49;40.64
63903;BME280;50072;50.678;13.938;2023-05-14T11:07:37;99576.13;;;22.26;41.15
63903;BME280;50072;50.678;13.938;2023-05-14T11:10:11;99564.13;;;21.02;42.51
63903;BME280;50072;50.678;13.938;2023-05-14T11:12:39;99565.69;;;20.66;45.41
63903;BME280;50072;50.678;13.938;2023-05-14T11:15:07;99559.91;;;20.58;45.56
63903;BME280;50072;50.678;13.938;2023-05-14T11:17:38;99558.25;;;20.56;47.07
63903;BME280;50072;50.678;13.938;2023-05-14T11:20:04;99552.16;;;20.79;45.82
63903;BME280;50072;50.678;13.938;2023-05-14T11:22:32;99547.53;;;20.67;45.12
63903;BME280;50072;50.678;13.938;2023-05-14T11:24:58;99547.69;;;20.78;46.18
63903;BME280;50072;50.678;13.938;2023-05-14T11:27:23;99551.03;;;20.82;44.38
63903;BME280;50072;50.678;13.938;2023-05-14T11:29:51;99547.47;;;20.54;44.67
63903;BME280;50072;50.678;13.938;2023-05-14T11:32:18;99540.00;;;20.30;45.27
63903;BME280;50072;50.678;13.938;2023-05-14T11:34:45;99536.94;;;20.22;45.35
63903;BME280;50072;50.678;13.938;2023-05-14T11:37:13;99540.19;;;20.14;45.90
63903;BME280;50072;50.678;13.938;2023-05-14T11:39:51;99543.38;;;19.94;45.53
63903;BME280;50072;50.678;13.938;2023-05-14T11:42:17;99533.47;;;19.78;46.57
63903;BME280;50072;50.678;13.938;2023-05-14T11:44:48;99530.16;;;19.73;46.21
63903;BME280;50072;50.678;13.938;2023-05-14T11:47:16;99531.16;;;19.87;44.23
63903;BME280;50072;50.678;13.938;2023-05-14T11:49:43;99533.00;;;19.72;46.61
63903;BME280;50072;50.678;13.938;2023-05-14T11:52:10;99524.53;;;19.91;45.21
63903;BME280;50072;50.678;13.938;2023-05-14T11:54:39;99531.50;;;19.95;45.37
63903;BME280;50072;50.678;13.938;2023-05-14T11:57:09;99527.88;;;20.09;45.57
63903;BME280;50072;50.678;13.938;2023-05-14T11:59:36;99524.66;;;20.57;45.77
63903;BME280;50072;50.678;13.938;2023-05-14T12:02:04;99524.47;;;25.77;36.46
63903;BME280;50072;50.678;13.938;2023-05-14T12:04:30;99521.13;;;29.14;29.69
63903;BME280;50072;50.678;13.938;2023-05-14T12:06:58;99531.19;;;29.23;28.18
63903;BME280;50072;50.678;13.938;2023-05-14T12:09:24;99524.03;;;27.76;30.69
63903;BME280;50072;50.678;13.938;2023-05-14T12:11:51;99512.69;;;27.61;29.14
63903;BME280;50072;50.678;13.938;2023-05-14T12:14:22;99510.03;;;29.58;29.29
63903;BME280;50072;50.678;13.938;2023-05-14T12:16:49;99503.78;;;28.23;31.27
63903;BME280;50072;50.678;13.938;2023-05-14T12:19:17;99506.28;;;26.76;31.74
63903;BME280;50072;50.678;13.938;2023-05-14T12:21:47;99505.09;;;25.59;33.13
63903;BME280;50072;50.678;13.938;2023-05-14T12:24:18;99503.88;;;24.37;35.94
63903;BME280;50072;50.678;13.938;2023-05-14T12:26:46;99498.38;;;23.38;37.91
63903;BME280;50072;50.678;13.938;2023-05-14T12:29:14;99504.56;;;22.59;39.22
63903;BME280;50072;50.678;13.938;2023-05-14T12:31:47;99500.16;;;21.97;39.78
63903;BME280;50072;50.678;13.938;2023-05-14T12:34:14;99503.78;;;21.47;40.80
63903;BME280;50072;50.678;13.938;2023-05-14T12:36:41;99502.81;;;21.35;40.91
63903;BME280;50072;50.678;13.938;2023-05-14T12:39:08;99504.06;;;21.06;41.25
63903;BME280;50072;50.678;13.938;2023-05-14T12:41:34;99497.53;;;20.82;43.27
63903;BME280;50072;50.678;13.938;2023-05-14T12:44:02;99501.09;;;20.83;42.47
63903;BME280;50072;50.678;13.938;2023-05-14T12:46:29;99499.91;;;20.74;42.08
63903;BME280;50072;50.678;13.938;2023-05-14T12:48:55;99499.00;;;20.61;43.41
63903;BME280;50072;50.678;13.938;2023-05-14T12:51:22;99492.53;;;20.49;43.08
63903;BME280;50072;50.678;13.938;2023-05-14T12:53:48;99488.03;;;20.22;44.05
63903;BME280;50072;50.678;13.938;2023-05-14T12:56:16;99491.69;;;20.08;44.04